sensor_id;sensor_type;location;lat;lon;timestamp;P1;durP1;ratioP1;P2;durP2;ratioP2
36575;SDS011;45700;50.930;5.168;2023-04-25T00:03:39;7.40;;;2.78;;
36575;SDS011;45700;50.930;5.168;2023-04-25T00:07:40;13.35;;;3.28;;
36575;SDS011;45700;50.930;5.168;2023-04-25T00:11:44;16.98;;;2.78;;
36575;SDS011;45700;50.930;5.168;2023-04-25T00:15:45;17.38;;;3.35;;
36575;SDS011;45700;50.930;5.168;2023-04-25T00:19:48;13.40;;;2.55;;
36575;SDS011;45700;50.930;5.168;2023-04-25T00:23:50;9.98;;;2.80;;
36575;SDS011;45700;50.930;5.168;2023-04-25T00:27:51;13.00;;;3.42;;
36575;SDS011;45700;50.930;5.168;2023-04-25T00:31:51;11.68;;;3.05;;
36575;SDS011;45700;50.930;5.168;2023-04-25T00:35:53;11.93;;;2.85;;
36575;SDS011;45700;50.930;5.168;2023-04-25T00:39:54;10.95;;;2.78;;
36575;SDS011;45700;50.930;5.168;2023-04-25T00:43:55;11.57;;;3.10;;
36575;SDS011;45700;50.930;5.168;2023-04-25T00:47:57;18.85;;;3.10;;
36575;SDS011;45700;50.930;5.168;2023-04-25T00:51:58;7.43;;;3.65;;
36575;SDS011;45700;50.930;5.168;2023-04-25T00:55:59;13.70;;;3.60;;
36575;SDS011;45700;50.930;5.168;2023-04-25T01:00:00;12.65;;;2.85;;
36575;SDS011;45700;50.930;5.168;2023-04-25T01:04:02;9.38;;;2.78;;
36575;SDS011;45700;50.930;5.168;2023-04-25T01:08:03;11.48;;;2.95;;
36575;SDS011;45700;50.930;5.168;2023-04-25T01:12:04;17.02;;;2.78;;
36575;SDS011;45700;50.930;5.168;2023-04-25T01:16:05;11.32;;;2.67;;
36575;SDS011;45700;50.930;5.168;2023-04-25T01:20:06;13.98;;;3.28;;
36575;SDS011;45700;50.930;5.168;2023-04-25T01:24:09;22.13;;;3.03;;
36575;SDS011;45700;50.930;5.168;2023-04-25T01:28:10;13.75;;;3.03;;
36575;SDS011;45700;50.930;5.168;2023-04-25T01:32:12;13.55;;;3.50;;
36575;SDS011;45700;50.930;5.168;2023-04-25T01:36:14;9.00;;;2.78;;
36575;SDS011;45700;50.930;5.168;2023-04-25T01:40:15;7.85;;;2.40;;
36575;SDS011;45700;50.930;5.168;2023-04-25T01:44:17;15.77;;;3.22;;
36575;SDS011;45700;50.930;5.168;2023-04-25T01:48:18;16.40;;;3.05;;
36575;SDS011;45700;50.930;5.168;2023-04-25T01:52:19;10.77;;;2.95;;
36575;SDS011;45700;50.930;5.168;2023-04-25T01:56:20;5.70;;;2.53;;
36575;SDS011;45700;50.930;5.168;2023-04-25T02:00:21;14.15;;;3.33;;
36575;SDS011;45700;50.930;5.168;2023-04-25T02:04:22;9.57;;;3.42;;
36575;SDS011;45700;50.930;5.168;2023-04-25T02:08:23;12.23;;;3.83;;
36575;SDS011;45700;50.930;5.168;2023-04-25T02:12:27;8.02;;;2.65;;
36575;SDS011;45700;50.930;5.168;2023-04-25T02:16:28;13.93;;;3.53;;
36575;SDS011;45700;50.930;5.168;2023-04-25T02:20:30;6.75;;;2.88;;
36575;SDS011;45700;50.930;5.168;2023-04-25T02:24:31;10.77;;;3.03;;
36575;SDS011;45700;50.930;5.168;2023-04-25T02:28:33;18.27;;;3.55;;
36575;SDS011;45700;50.930;5.168;2023-04-25T02:32:35;19.30;;;4.20;;
36575;SDS011;45700;50.930;5.168;2023-04-25T02:36:36;18.88;;;3.25;;
36575;SDS011;45700;50.930;5.168;2023-04-25T02:40:37;12.05;;;3.55;;
36575;SDS011;45700;50.930;5.168;2023-04-25T02:44:38;9.10;;;3.28;;
36575;SDS011;45700;50.930;5.168;2023-04-25T02:48:39;11.13;;;2.88;;
36575;SDS011;45700;50.930;5.168;2023-04-25T02:52:40;19.20;;;3.10;;
36575;SDS011;45700;50.930;5.168;2023-04-25T02:56:41;14.57;;;3.42;;
36575;SDS011;45700;50.930;5.168;2023-04-25T03:00:42;9.98;;;3.45;;
36575;SDS011;45700;50.930;5.168;2023-04-25T03:04:43;16.10;;;4.22;;
36575;SDS011;45700;50.930;5.168;2023-04-25T03:08:44;16.17;;;3.95;;
36575;SDS011;45700;50.930;5.168;2023-04-25T03:12:45;14.30;;;3.83;;
36575;SDS011;45700;50.930;5.168;2023-04-25T03:16:46;13.00;;;3.38;;
36575;SDS011;45700;50.930;5.168;2023-04-25T03:20:47;17.17;;;3.45;;
36575;SDS011;45700;50.930;5.168;2023-04-25T03:24:48;13.68;;;3.63;;
36575;SDS011;45700;50.930;5.168;2023-04-25T03:28:49;25.38;;;3.78;;
36575;SDS011;45700;50.930;5.168;2023-04-25T03:32:50;18.63;;;3.53;;
36575;SDS011;45700;50.930;5.168;2023-04-25T03:36:51;10.65;;;3.65;;
36575;SDS011;45700;50.930;5.168;2023-04-25T03:40:52;9.52;;;3.78;;
36575;SDS011;45700;50.930;5.168;2023-04-25T03:44:53;9.07;;;3.30;;
36575;SDS011;45700;50.930;5.168;2023-04-25T03:48:54;22.77;;;3.47;;
36575;SDS011;45700;50.930;5.168;2023-04-25T03:52:55;17.90;;;3.40;;
36575;SDS011;45700;50.930;5.168;2023-04-25T03:56:56;10.00;;;3.60;;
36575;SDS011;45700;50.930;5.168;2023-04-25T04:00:57;17.58;;;3.67;;
36575;SDS011;45700;50.930;5.168;2023-04-25T04:09:09;6.55;;;3.00;;
36575;SDS011;45700;50.930;5.168;2023-04-25T04:13:11;7.47;;;2.88;;
36575;SDS011;45700;50.930;5.168;2023-04-25T04:17:12;6.63;;;2.88;;
36575;SDS011;45700;50.930;5.168;2023-04-25T04:21:13;12.88;;;3.35;;
36575;SDS011;45700;50.930;5.168;2023-04-25T04:25:14;11.50;;;3.03;;
36575;SDS011;45700;50.930;5.168;2023-04-25T04:29:16;13.23;;;3.22;;
36575;SDS011;45700;50.930;5.168;2023-04-25T04:33:20;9.10;;;3.88;;
36575;SDS011;45700;50.930;5.168;2023-04-25T04:37:23;15.68;;;3.00;;
36575;SDS011;45700;50.930;5.168;2023-04-25T04:41:24;7.68;;;2.22;;
36575;SDS011;45700;50.930;5.168;2023-04-25T04:45:25;12.57;;;2.67;;
36575;SDS011;45700;50.930;5.168;2023-04-25T04:49:27;10.75;;;2.10;;
36575;SDS011;45700;50.930;5.168;2023-04-25T04:53:28;7.70;;;2.00;;
36575;SDS011;45700;50.930;5.168;2023-04-25T04:57:29;8.38;;;2.92;;
36575;SDS011;45700;50.930;5.168;2023-04-25T05:01:31;11.40;;;4.55;;
36575;SDS011;45700;50.930;5.168;2023-04-25T05:05:32;5.65;;;2.30;;
36575;SDS011;45700;50.930;5.168;2023-04-25T05:09:33;9.95;;;2.22;;
36575;SDS011;45700;50.930;5.168;2023-04-25T05:13:34;7.88;;;2.08;;
36575;SDS011;45700;50.930;5.168;2023-04-25T05:17:35;9.35;;;2.03;;
36575;SDS011;45700;50.930;5.168;2023-04-25T05:21:36;11.40;;;2.17;;
36575;SDS011;45700;50.930;5.168;2023-04-25T05:25:37;9.73;;;3.05;;
36575;SDS011;45700;50.930;5.168;2023-04-25T05:29:38;12.82;;;2.75;;
36575;SDS011;45700;50.930;5.168;2023-04-25T05:33:39;16.25;;;3.08;;
36575;SDS011;45700;50.930;5.168;2023-04-25T05:37:40;11.30;;;4.05;;
36575;SDS011;45700;50.930;5.168;2023-04-25T05:41:41;12.85;;;3.85;;
36575;SDS011;45700;50.930;5.168;2023-04-25T05:45:42;12.68;;;4.40;;
36575;SDS011;45700;50.930;5.168;2023-04-25T05:49:43;13.07;;;3.78;;
36575;SDS011;45700;50.930;5.168;2023-04-25T05:53:44;24.52;;;4.25;;
36575;SDS011;45700;50.930;5.168;2023-04-25T05:57:45;11.55;;;4.32;;
36575;SDS011;45700;50.930;5.168;2023-04-25T06:01:46;13.88;;;4.18;;
36575;SDS011;45700;50.930;5.168;2023-04-25T06:05:47;14.60;;;4.30;;
36575;SDS011;45700;50.930;5.168;2023-04-25T06:09:48;12.75;;;4.88;;
36575;SDS011;45700;50.930;5.168;2023-04-25T06:13:49;13.25;;;4.55;;
36575;SDS011;45700;50.930;5.168;2023-04-25T06:17:50;18.92;;;4.50;;
36575;SDS011;45700;50.930;5.168;2023-04-25T06:21:51;21.85;;;5.03;;
36575;SDS011;45700;50.930;5.168;2023-04-25T06:25:52;15.43;;;4.40;;
36575;SDS011;45700;50.930;5.168;2023-04-25T06:29:53;17.92;;;6.07;;
36575;SDS011;45700;50.930;5.168;2023-04-25T06:33:56;16.58;;;5.00;;
36575;SDS011;45700;50.930;5.168;2023-04-25T06:37:56;24.58;;;5.05;;
36575;SDS011;45700;50.930;5.168;2023-04-25T06:41:57;19.27;;;4.85;;
36575;SDS011;45700;50.930;5.168;2023-04-25T06:45:59;19.10;;;5.07;;
36575;SDS011;45700;50.930;5.168;2023-04-25T06:50:00;20.88;;;4.55;;
36575;SDS011;45700;50.930;5.168;2023-04-25T06:54:01;20.42;;;4.78;;
36575;SDS011;45700;50.930;5.168;2023-04-25T06:58:04;17.90;;;4.85;;
36575;SDS011;45700;50.930;5.168;2023-04-25T07:02:05;24.40;;;5.30;;
36575;SDS011;45700;50.930;5.168;2023-04-25T07:06:06;17.98;;;5.47;;
36575;SDS011;45700;50.930;5.168;2023-04-25T07:10:07;16.20;;;4.03;;
36575;SDS011;45700;50.930;5.168;2023-04-25T07:14:08;11.40;;;3.42;;
36575;SDS011;45700;50.930;5.168;2023-04-25T07:18:09;13.35;;;3.10;;
36575;SDS011;45700;50.930;5.168;2023-04-25T07:22:13;20.83;;;3.63;;
36575;SDS011;45700;50.930;5.168;2023-04-25T07:26:14;18.27;;;3.53;;
36575;SDS011;45700;50.930;5.168;2023-04-25T07:30:15;13.05;;;3.95;;
36575;SDS011;45700;50.930;5.168;2023-04-25T07:34:16;14.93;;;2.90;;
36575;SDS011;45700;50.930;5.168;2023-04-25T07:38:17;17.27;;;4.38;;
36575;SDS011;45700;50.930;5.168;2023-04-25T07:42:18;14.65;;;4.50;;
36575;SDS011;45700;50.930;5.168;2023-04-25T07:46:19;11.20;;;3.03;;
36575;SDS011;45700;50.930;5.168;2023-04-25T07:50:20;13.75;;;2.50;;
36575;SDS011;45700;50.930;5.168;2023-04-25T07:54:21;15.52;;;2.83;;
36575;SDS011;45700;50.930;5.168;2023-04-25T07:58:22;7.18;;;2.42;;
36575;SDS011;45700;50.930;5.168;2023-04-25T08:02:24;5.03;;;1.75;;
36575;SDS011;45700;50.930;5.168;2023-04-25T08:06:28;10.00;;;2.17;;
36575;SDS011;45700;50.930;5.168;2023-04-25T08:10:29;7.82;;;2.03;;
36575;SDS011;45700;50.930;5.168;2023-04-25T08:14:30;7.95;;;2.20;;
36575;SDS011;45700;50.930;5.168;2023-04-25T08:18:35;7.53;;;2.25;;
36575;SDS011;45700;50.930;5.168;2023-04-25T08:22:36;11.73;;;2.20;;
36575;SDS011;45700;50.930;5.168;2023-04-25T08:26:37;7.07;;;2.25;;
36575;SDS011;45700;50.930;5.168;2023-04-25T08:30:39;4.82;;;2.15;;
36575;SDS011;45700;50.930;5.168;2023-04-25T08:34:40;8.13;;;2.13;;
36575;SDS011;45700;50.930;5.168;2023-04-25T08:38:42;4.25;;;1.75;;
36575;SDS011;45700;50.930;5.168;2023-04-25T08:42:43;7.07;;;1.73;;
36575;SDS011;45700;50.930;5.168;2023-04-25T08:46:44;5.30;;;1.58;;
36575;SDS011;45700;50.930;5.168;2023-04-25T08:50:49;5.28;;;1.40;;
36575;SDS011;45700;50.930;5.168;2023-04-25T08:54:51;7.65;;;1.63;;
36575;SDS011;45700;50.930;5.168;2023-04-25T08:58:52;9.20;;;1.60;;
36575;SDS011;45700;50.930;5.168;2023-04-25T09:02:53;8.70;;;1.42;;
36575;SDS011;45700;50.930;5.168;2023-04-25T09:06:55;6.53;;;1.42;;
36575;SDS011;45700;50.930;5.168;2023-04-25T09:10:56;4.60;;;1.40;;
36575;SDS011;45700;50.930;5.168;2023-04-25T09:15:07;4.10;;;1.23;;
36575;SDS011;45700;50.930;5.168;2023-04-25T09:19:10;6.00;;;1.15;;
36575;SDS011;45700;50.930;5.168;2023-04-25T09:23:21;6.30;;;1.38;;
36575;SDS011;45700;50.930;5.168;2023-04-25T09:27:23;7.93;;;1.02;;
36575;SDS011;45700;50.930;5.168;2023-04-25T09:31:25;4.00;;;1.25;;
36575;SDS011;45700;50.930;5.168;2023-04-25T09:35:26;10.48;;;1.80;;
36575;SDS011;45700;50.930;5.168;2023-04-25T09:39:28;2.88;;;1.50;;
36575;SDS011;45700;50.930;5.168;2023-04-25T09:43:29;5.32;;;1.40;;
36575;SDS011;45700;50.930;5.168;2023-04-25T09:47:30;4.82;;;1.50;;
36575;SDS011;45700;50.930;5.168;2023-04-25T09:51:32;8.07;;;1.85;;
36575;SDS011;45700;50.930;5.168;2023-04-25T09:55:33;5.03;;;1.70;;
36575;SDS011;45700;50.930;5.168;2023-04-25T09:59:34;1.95;;;1.25;;
36575;SDS011;45700;50.930;5.168;2023-04-25T10:03:38;3.22;;;1.48;;
36575;SDS011;45700;50.930;5.168;2023-04-25T10:07:40;1.90;;;1.50;;
36575;SDS011;45700;50.930;5.168;2023-04-25T10:11:41;3.10;;;1.30;;
36575;SDS011;45700;50.930;5.168;2023-04-25T10:15:43;3.17;;;1.33;;
36575;SDS011;45700;50.930;5.168;2023-04-25T10:19:44;4.03;;;1.58;;
36575;SDS011;45700;50.930;5.168;2023-04-25T10:23:45;4.28;;;1.60;;
36575;SDS011;45700;50.930;5.168;2023-04-25T10:27:47;3.83;;;2.05;;
36575;SDS011;45700;50.930;5.168;2023-04-25T10:31:47;6.70;;;2.10;;
36575;SDS011;45700;50.930;5.168;2023-04-25T10:35:48;5.72;;;2.20;;
36575;SDS011;45700;50.930;5.168;2023-04-25T10:39:51;10.40;;;2.90;;
36575;SDS011;45700;50.930;5.168;2023-04-25T10:44:01;4.70;;;1.75;;
36575;SDS011;45700;50.930;5.168;2023-04-25T10:48:02;2.50;;;1.50;;
36575;SDS011;45700;50.930;5.168;2023-04-25T10:56:17;4.22;;;1.70;;
36575;SDS011;45700;50.930;5.168;2023-04-25T11:00:19;2.83;;;1.23;;
36575;SDS011;45700;50.930;5.168;2023-04-25T11:08:26;2.53;;;1.17;;
36575;SDS011;45700;50.930;5.168;2023-04-25T11:12:33;6.18;;;1.20;;
36575;SDS011;45700;50.930;5.168;2023-04-25T11:16:35;2.60;;;1.08;;
36575;SDS011;45700;50.930;5.168;2023-04-25T11:20:36;3.60;;;0.90;;
36575;SDS011;45700;50.930;5.168;2023-04-25T11:24:37;2.45;;;0.93;;
36575;SDS011;45700;50.930;5.168;2023-04-25T11:28:38;1.17;;;0.40;;
36575;SDS011;45700;50.930;5.168;2023-04-25T11:32:40;8.32;;;0.82;;
36575;SDS011;45700;50.930;5.168;2023-04-25T11:36:41;1.92;;;0.55;;
36575;SDS011;45700;50.930;5.168;2023-04-25T11:40:42;2.72;;;0.80;;
36575;SDS011;45700;50.930;5.168;2023-04-25T11:44:43;2.85;;;0.68;;
36575;SDS011;45700;50.930;5.168;2023-04-25T11:48:44;1.30;;;0.63;;
36575;SDS011;45700;50.930;5.168;2023-04-25T11:52:46;2.22;;;0.88;;
36575;SDS011;45700;50.930;5.168;2023-04-25T11:56:48;2.17;;;0.80;;
36575;SDS011;45700;50.930;5.168;2023-04-25T12:00:49;4.47;;;1.10;;
36575;SDS011;45700;50.930;5.168;2023-04-25T12:04:50;3.97;;;1.33;;
36575;SDS011;45700;50.930;5.168;2023-04-25T12:09:03;1.90;;;0.70;;
36575;SDS011;45700;50.930;5.168;2023-04-25T12:13:24;6.82;;;1.20;;
36575;SDS011;45700;50.930;5.168;2023-04-25T12:17:25;2.97;;;1.40;;
36575;SDS011;45700;50.930;5.168;2023-04-25T12:21:27;4.93;;;1.85;;
36575;SDS011;45700;50.930;5.168;2023-04-25T12:25:41;5.95;;;2.05;;
36575;SDS011;45700;50.930;5.168;2023-04-25T12:29:49;2.97;;;1.85;;
36575;SDS011;45700;50.930;5.168;2023-04-25T12:33:51;5.77;;;1.40;;
36575;SDS011;45700;50.930;5.168;2023-04-25T12:37:52;4.72;;;1.75;;
36575;SDS011;45700;50.930;5.168;2023-04-25T12:41:53;3.65;;;1.45;;
36575;SDS011;45700;50.930;5.168;2023-04-25T12:45:55;3.67;;;1.50;;
36575;SDS011;45700;50.930;5.168;2023-04-25T12:49:56;1.63;;;1.10;;
36575;SDS011;45700;50.930;5.168;2023-04-25T12:53:57;3.72;;;1.40;;
36575;SDS011;45700;50.930;5.168;2023-04-25T12:57:58;5.03;;;1.20;;
36575;SDS011;45700;50.930;5.168;2023-04-25T13:01:59;1.60;;;0.80;;
36575;SDS011;45700;50.930;5.168;2023-04-25T13:06:00;3.42;;;1.48;;
36575;SDS011;45700;50.930;5.168;2023-04-25T13:10:01;4.40;;;1.73;;
36575;SDS011;45700;50.930;5.168;2023-04-25T13:14:03;4.57;;;2.10;;
36575;SDS011;45700;50.930;5.168;2023-04-25T13:18:04;5.07;;;1.70;;
36575;SDS011;45700;50.930;5.168;2023-04-25T13:22:08;1.60;;;0.98;;
36575;SDS011;45700;50.930;5.168;2023-04-25T13:26:09;2.97;;;1.25;;
36575;SDS011;45700;50.930;5.168;2023-04-25T13:30:10;5.60;;;1.40;;
36575;SDS011;45700;50.930;5.168;2023-04-25T13:34:11;7.35;;;1.20;;
36575;SDS011;45700;50.930;5.168;2023-04-25T13:38:12;4.13;;;1.20;;
36575;SDS011;45700;50.930;5.168;2023-04-25T13:42:13;1.35;;;0.88;;
36575;SDS011;45700;50.930;5.168;2023-04-25T13:46:15;1.60;;;1.02;;
36575;SDS011;45700;50.930;5.168;2023-04-25T13:50:17;1.00;;;0.70;;
36575;SDS011;45700;50.930;5.168;2023-04-25T13:54:18;3.00;;;1.10;;
36575;SDS011;45700;50.930;5.168;2023-04-25T13:58:19;1.80;;;1.02;;
36575;SDS011;45700;50.930;5.168;2023-04-25T14:02:20;6.28;;;1.88;;
36575;SDS011;45700;50.930;5.168;2023-04-25T14:06:21;5.60;;;1.15;;
36575;SDS011;45700;50.930;5.168;2023-04-25T14:10:23;1.48;;;0.88;;
36575;SDS011;45700;50.930;5.168;2023-04-25T14:14:24;0.95;;;0.68;;
36575;SDS011;45700;50.930;5.168;2023-04-25T14:18:25;1.58;;;0.80;;
36575;SDS011;45700;50.930;5.168;2023-04-25T14:22:26;3.15;;;0.70;;
36575;SDS011;45700;50.930;5.168;2023-04-25T14:26:27;2.05;;;0.70;;
36575;SDS011;45700;50.930;5.168;2023-04-25T14:30:29;0.82;;;0.50;;
36575;SDS011;45700;50.930;5.168;2023-04-25T14:34:30;2.05;;;0.77;;
36575;SDS011;45700;50.930;5.168;2023-04-25T14:38:31;4.78;;;1.55;;
36575;SDS011;45700;50.930;5.168;2023-04-25T14:42:32;3.63;;;0.70;;
36575;SDS011;45700;50.930;5.168;2023-04-25T14:46:34;3.20;;;0.90;;
36575;SDS011;45700;50.930;5.168;2023-04-25T14:50:35;2.65;;;1.48;;
36575;SDS011;45700;50.930;5.168;2023-04-25T14:54:36;3.47;;;0.98;;
36575;SDS011;45700;50.930;5.168;2023-04-25T14:58:37;1.02;;;0.55;;
36575;SDS011;45700;50.930;5.168;2023-04-25T15:02:38;2.25;;;0.80;;
36575;SDS011;45700;50.930;5.168;2023-04-25T15:06:39;3.47;;;0.80;;
36575;SDS011;45700;50.930;5.168;2023-04-25T15:10:40;0.60;;;0.60;;
36575;SDS011;45700;50.930;5.168;2023-04-25T15:14:41;2.65;;;0.73;;
36575;SDS011;45700;50.930;5.168;2023-04-25T15:18:42;0.95;;;0.60;;
36575;SDS011;45700;50.930;5.168;2023-04-25T15:22:43;2.58;;;0.70;;
36575;SDS011;45700;50.930;5.168;2023-04-25T15:26:45;5.07;;;0.90;;
36575;SDS011;45700;50.930;5.168;2023-04-25T15:30:46;5.03;;;0.70;;
36575;SDS011;45700;50.930;5.168;2023-04-25T15:34:47;4.28;;;1.88;;
36575;SDS011;45700;50.930;5.168;2023-04-25T15:38:49;1.15;;;1.05;;
36575;SDS011;45700;50.930;5.168;2023-04-25T15:42:51;3.60;;;0.75;;
36575;SDS011;45700;50.930;5.168;2023-04-25T15:46:52;4.45;;;0.85;;
36575;SDS011;45700;50.930;5.168;2023-04-25T15:50:53;3.53;;;0.93;;
36575;SDS011;45700;50.930;5.168;2023-04-25T15:54:55;4.00;;;0.80;;
36575;SDS011;45700;50.930;5.168;2023-04-25T15:58:56;1.88;;;0.70;;
36575;SDS011;45700;50.930;5.168;2023-04-25T16:02:57;6.18;;;1.00;;
36575;SDS011;45700;50.930;5.168;2023-04-25T16:06:58;4.10;;;0.90;;
36575;SDS011;45700;50.930;5.168;2023-04-25T16:10:59;4.53;;;1.08;;
36575;SDS011;45700;50.930;5.168;2023-04-25T16:15:00;5.40;;;1.42;;
36575;SDS011;45700;50.930;5.168;2023-04-25T16:19:01;7.20;;;1.02;;
36575;SDS011;45700;50.930;5.168;2023-04-25T16:23:02;3.50;;;0.90;;
36575;SDS011;45700;50.930;5.168;2023-04-25T16:27:03;1.90;;;0.73;;
36575;SDS011;45700;50.930;5.168;2023-04-25T16:31:04;1.65;;;0.80;;
36575;SDS011;45700;50.930;5.168;2023-04-25T16:35:06;2.50;;;0.85;;
36575;SDS011;45700;50.930;5.168;2023-04-25T16:39:07;2.42;;;0.85;;
36575;SDS011;45700;50.930;5.168;2023-04-25T16:43:08;1.05;;;0.40;;
36575;SDS011;45700;50.930;5.168;2023-04-25T16:47:09;1.08;;;0.60;;
36575;SDS011;45700;50.930;5.168;2023-04-25T16:51:10;2.92;;;0.68;;
36575;SDS011;45700;50.930;5.168;2023-04-25T16:55:11;0.40;;;0.40;;
36575;SDS011;45700;50.930;5.168;2023-04-25T16:59:12;6.85;;;1.17;;
36575;SDS011;45700;50.930;5.168;2023-04-25T17:03:14;1.25;;;1.02;;
36575;SDS011;45700;50.930;5.168;2023-04-25T17:07:15;7.18;;;0.77;;
36575;SDS011;45700;50.930;5.168;2023-04-25T17:11:17;1.10;;;0.70;;
36575;SDS011;45700;50.930;5.168;2023-04-25T17:15:19;6.80;;;1.30;;
36575;SDS011;45700;50.930;5.168;2023-04-25T17:19:20;2.53;;;0.90;;
36575;SDS011;45700;50.930;5.168;2023-04-25T17:23:21;2.17;;;0.73;;
36575;SDS011;45700;50.930;5.168;2023-04-25T17:27:22;5.10;;;0.77;;
36575;SDS011;45700;50.930;5.168;2023-04-25T17:31:23;4.50;;;1.15;;
36575;SDS011;45700;50.930;5.168;2023-04-25T17:35:24;2.55;;;0.63;;
36575;SDS011;45700;50.930;5.168;2023-04-25T17:39:25;1.63;;;1.00;;
36575;SDS011;45700;50.930;5.168;2023-04-25T17:43:27;4.85;;;0.82;;
36575;SDS011;45700;50.930;5.168;2023-04-25T17:47:28;4.32;;;1.13;;
36575;SDS011;45700;50.930;5.168;2023-04-25T17:51:29;1.05;;;0.60;;
36575;SDS011;45700;50.930;5.168;2023-04-25T17:55:30;3.97;;;1.13;;
36575;SDS011;45700;50.930;5.168;2023-04-25T17:59:31;4.07;;;1.05;;
36575;SDS011;45700;50.930;5.168;2023-04-25T18:03:32;2.63;;;0.93;;
36575;SDS011;45700;50.930;5.168;2023-04-25T18:07:34;2.95;;;0.90;;
36575;SDS011;45700;50.930;5.168;2023-04-25T18:11:35;3.17;;;1.10;;
36575;SDS011;45700;50.930;5.168;2023-04-25T18:15:36;7.15;;;0.85;;
36575;SDS011;45700;50.930;5.168;2023-04-25T18:19:37;2.13;;;1.10;;
36575;SDS011;45700;50.930;5.168;2023-04-25T18:23:38;5.20;;;0.93;;
36575;SDS011;45700;50.930;5.168;2023-04-25T18:27:40;2.03;;;0.73;;
36575;SDS011;45700;50.930;5.168;2023-04-25T18:31:41;2.00;;;0.90;;
36575;SDS011;45700;50.930;5.168;2023-04-25T18:35:42;4.82;;;1.40;;
36575;SDS011;45700;50.930;5.168;2023-04-25T18:39:43;2.00;;;0.80;;
36575;SDS011;45700;50.930;5.168;2023-04-25T18:43:44;2.60;;;1.10;;
36575;SDS011;45700;50.930;5.168;2023-04-25T18:47:45;2.63;;;0.82;;
36575;SDS011;45700;50.930;5.168;2023-04-25T18:51:46;3.83;;;1.10;;
36575;SDS011;45700;50.930;5.168;2023-04-25T18:55:48;3.70;;;1.17;;
36575;SDS011;45700;50.930;5.168;2023-04-25T18:59:49;2.53;;;0.85;;
36575;SDS011;45700;50.930;5.168;2023-04-25T19:03:50;3.65;;;0.80;;
36575;SDS011;45700;50.930;5.168;2023-04-25T19:07:55;5.75;;;0.90;;
36575;SDS011;45700;50.930;5.168;2023-04-25T19:11:56;2.30;;;1.25;;
36575;SDS011;45700;50.930;5.168;2023-04-25T19:15:57;4.85;;;0.95;;
36575;SDS011;45700;50.930;5.168;2023-04-25T19:19:58;1.88;;;0.88;;
36575;SDS011;45700;50.930;5.168;2023-04-25T19:24:01;2.40;;;1.10;;
36575;SDS011;45700;50.930;5.168;2023-04-25T19:28:02;2.67;;;1.27;;
36575;SDS011;45700;50.930;5.168;2023-04-25T19:32:04;3.28;;;1.00;;
36575;SDS011;45700;50.930;5.168;2023-04-25T19:36:05;2.45;;;1.00;;
36575;SDS011;45700;50.930;5.168;2023-04-25T19:40:06;3.92;;;1.55;;
36575;SDS011;45700;50.930;5.168;2023-04-25T19:44:08;3.35;;;1.20;;
36575;SDS011;45700;50.930;5.168;2023-04-25T19:48:09;3.42;;;1.63;;
36575;SDS011;45700;50.930;5.168;2023-04-25T19:52:10;4.97;;;1.10;;
36575;SDS011;45700;50.930;5.168;2023-04-25T19:56:16;2.60;;;1.00;;
36575;SDS011;45700;50.930;5.168;2023-04-25T20:00:17;1.77;;;1.08;;
36575;SDS011;45700;50.930;5.168;2023-04-25T20:04:18;7.57;;;1.80;;
36575;SDS011;45700;50.930;5.168;2023-04-25T20:08:20;3.53;;;1.05;;
36575;SDS011;45700;50.930;5.168;2023-04-25T20:12:21;2.85;;;1.35;;
36575;SDS011;45700;50.930;5.168;2023-04-25T20:16:22;6.65;;;1.48;;
36575;SDS011;45700;50.930;5.168;2023-04-25T20:20:23;10.13;;;1.65;;
36575;SDS011;45700;50.930;5.168;2023-04-25T20:24:24;2.83;;;1.33;;
36575;SDS011;45700;50.930;5.168;2023-04-25T20:28:25;2.70;;;1.50;;
36575;SDS011;45700;50.930;5.168;2023-04-25T20:32:26;5.40;;;1.55;;
36575;SDS011;45700;50.930;5.168;2023-04-25T20:36:28;3.80;;;1.35;;
36575;SDS011;45700;50.930;5.168;2023-04-25T20:40:29;7.30;;;1.90;;
36575;SDS011;45700;50.930;5.168;2023-04-25T20:44:30;3.63;;;1.52;;
36575;SDS011;45700;50.930;5.168;2023-04-25T20:48:31;4.28;;;2.17;;
36575;SDS011;45700;50.930;5.168;2023-04-25T20:52:33;6.18;;;1.83;;
36575;SDS011;45700;50.930;5.168;2023-04-25T20:56:34;4.38;;;1.90;;
36575;SDS011;45700;50.930;5.168;2023-04-25T21:00:35;5.80;;;2.05;;
36575;SDS011;45700;50.930;5.168;2023-04-25T21:04:37;3.35;;;2.03;;
36575;SDS011;45700;50.930;5.168;2023-04-25T21:08:38;3.15;;;1.88;;
36575;SDS011;45700;50.930;5.168;2023-04-25T21:12:40;6.43;;;1.80;;
36575;SDS011;45700;50.930;5.168;2023-04-25T21:16:42;3.75;;;1.70;;
36575;SDS011;45700;50.930;5.168;2023-04-25T21:20:43;7.20;;;2.40;;
36575;SDS011;45700;50.930;5.168;2023-04-25T21:24:45;9.63;;;2.35;;
36575;SDS011;45700;50.930;5.168;2023-04-25T21:28:49;6.32;;;1.83;;
36575;SDS011;45700;50.930;5.168;2023-04-25T21:32:50;7.47;;;2.50;;
36575;SDS011;45700;50.930;5.168;2023-04-25T21:36:51;7.82;;;2.00;;
36575;SDS011;45700;50.930;5.168;2023-04-25T21:40:52;5.28;;;1.80;;
36575;SDS011;45700;50.930;5.168;2023-04-25T21:44:53;4.63;;;1.75;;
36575;SDS011;45700;50.930;5.168;2023-04-25T21:48:55;11.65;;;2.38;;
36575;SDS011;45700;50.930;5.168;2023-04-25T21:52:56;6.82;;;2.22;;
36575;SDS011;45700;50.930;5.168;2023-04-25T21:56:57;4.07;;;2.15;;
36575;SDS011;45700;50.930;5.168;2023-04-25T22:00:59;5.88;;;1.95;;
36575;SDS011;45700;50.930;5.168;2023-04-25T22:05:00;8.13;;;2.55;;
36575;SDS011;45700;50.930;5.168;2023-04-25T22:09:01;4.80;;;2.03;;
36575;SDS011;45700;50.930;5.168;2023-04-25T22:13:03;7.13;;;2.22;;
36575;SDS011;45700;50.930;5.168;2023-04-25T22:17:04;7.97;;;2.40;;
36575;SDS011;45700;50.930;5.168;2023-04-25T22:21:05;6.38;;;2.13;;
36575;SDS011;45700;50.930;5.168;2023-04-25T22:25:07;10.43;;;2.38;;
36575;SDS011;45700;50.930;5.168;2023-04-25T22:29:08;7.35;;;2.00;;
36575;SDS011;45700;50.930;5.168;2023-04-25T22:33:09;7.05;;;2.67;;
36575;SDS011;45700;50.930;5.168;2023-04-25T22:37:10;10.80;;;2.50;;
36575;SDS011;45700;50.930;5.168;2023-04-25T22:41:11;9.07;;;2.50;;
36575;SDS011;45700;50.930;5.168;2023-04-25T22:45:13;9.77;;;2.47;;
36575;SDS011;45700;50.930;5.168;2023-04-25T22:49:15;6.22;;;2.53;;
36575;SDS011;45700;50.930;5.168;2023-04-25T22:53:16;10.63;;;2.60;;
36575;SDS011;45700;50.930;5.168;2023-04-25T22:57:17;6.93;;;2.47;;
36575;SDS011;45700;50.930;5.168;2023-04-25T23:01:20;9.88;;;2.63;;
36575;SDS011;45700;50.930;5.168;2023-04-25T23:05:21;8.80;;;3.63;;
36575;SDS011;45700;50.930;5.168;2023-04-25T23:09:25;10.80;;;3.00;;
36575;SDS011;45700;50.930;5.168;2023-04-25T23:13:26;12.82;;;3.00;;
36575;SDS011;45700;50.930;5.168;2023-04-25T23:17:27;8.98;;;2.22;;
36575;SDS011;45700;50.930;5.168;2023-04-25T23:21:28;8.13;;;3.25;;
36575;SDS011;45700;50.930;5.168;2023-04-25T23:25:29;11.63;;;3.15;;
36575;SDS011;45700;50.930;5.168;2023-04-25T23:33:37;10.27;;;2.63;;
36575;SDS011;45700;50.930;5.168;2023-04-25T23:37:38;8.98;;;2.92;;
36575;SDS011;45700;50.930;5.168;2023-04-25T23:41:39;6.18;;;2.95;;
36575;SDS011;45700;50.930;5.168;2023-04-25T23:45:40;6.10;;;2.22;;
36575;SDS011;45700;50.930;5.168;2023-04-25T23:49:45;13.52;;;3.42;;
36575;SDS011;45700;50.930;5.168;2023-04-25T23:53:46;7.63;;;2.72;;
36575;SDS011;45700;50.930;5.168;2023-04-25T23:57:47;8.68;;;3.65;;
